sensor_id;sensor_type;location;lat;lon;timestamp;P1;durP1;ratioP1;P2;durP2;ratioP2
8247;SDS011;4164;49.844;8.830;2023-04-03T00:00:12;5.60;;;3.27;;
8247;SDS011;4164;49.844;8.830;2023-04-03T00:02:38;3.97;;;3.57;;
8247;SDS011;4164;49.844;8.830;2023-04-03T00:05:05;5.13;;;3.83;;
8247;SDS011;4164;49.844;8.830;2023-04-03T00:07:31;6.30;;;3.70;;
8247;SDS011;4164;49.844;8.830;2023-04-03T00:09:57;4.33;;;3.27;;
8247;SDS011;4164;49.844;8.830;2023-04-03T00:12:22;5.47;;;4.10;;
8247;SDS011;4164;49.844;8.830;2023-04-03T00:14:48;4.43;;;3.43;;
8247;SDS011;4164;49.844;8.830;2023-04-03T00:17:13;5.03;;;3.60;;
8247;SDS011;4164;49.844;8.830;2023-04-03T00:19:39;5.87;;;3.47;;
8247;SDS011;4164;49.844;8.830;2023-04-03T00:22:05;6.10;;;3.53;;
8247;SDS011;4164;49.844;8.830;2023-04-03T00:24:30;5.03;;;3.40;;
8247;SDS011;4164;49.844;8.830;2023-04-03T00:26:56;5.97;;;3.97;;
8247;SDS011;4164;49.844;8.830;2023-04-03T00:29:21;5.90;;;3.83;;
8247;SDS011;4164;49.844;8.830;2023-04-03T00:31:47;6.67;;;3.47;;
8247;SDS011;4164;49.844;8.830;2023-04-03T00:34:12;3.93;;;3.13;;
8247;SDS011;4164;49.844;8.830;2023-04-03T00:36:38;3.33;;;3.03;;
8247;SDS011;4164;49.844;8.830;2023-04-03T00:39:03;7.30;;;3.40;;
8247;SDS011;4164;49.844;8.830;2023-04-03T00:41:29;4.67;;;3.40;;
8247;SDS011;4164;49.844;8.830;2023-04-03T00:43:55;4.30;;;3.47;;
8247;SDS011;4164;49.844;8.830;2023-04-03T00:46:20;4.43;;;3.13;;
8247;SDS011;4164;49.844;8.830;2023-04-03T00:48:46;5.33;;;3.57;;
8247;SDS011;4164;49.844;8.830;2023-04-03T00:51:17;5.53;;;3.40;;
8247;SDS011;4164;49.844;8.830;2023-04-03T00:53:47;8.00;;;3.67;;
8247;SDS011;4164;49.844;8.830;2023-04-03T00:56:18;4.87;;;3.60;;
8247;SDS011;4164;49.844;8.830;2023-04-03T00:58:48;4.87;;;3.37;;
8247;SDS011;4164;49.844;8.830;2023-04-03T01:01:24;4.63;;;3.73;;
8247;SDS011;4164;49.844;8.830;2023-04-03T01:03:51;5.13;;;3.77;;
8247;SDS011;4164;49.844;8.830;2023-04-03T01:06:18;4.90;;;3.00;;
8247;SDS011;4164;49.844;8.830;2023-04-03T01:08:48;6.23;;;3.50;;
8247;SDS011;4164;49.844;8.830;2023-04-03T01:11:14;7.47;;;3.63;;
8247;SDS011;4164;49.844;8.830;2023-04-03T01:13:40;4.60;;;3.00;;
8247;SDS011;4164;49.844;8.830;2023-04-03T01:16:06;6.17;;;3.60;;
8247;SDS011;4164;49.844;8.830;2023-04-03T01:18:33;5.70;;;3.53;;
8247;SDS011;4164;49.844;8.830;2023-04-03T01:26:44;4.50;;;3.30;;
8247;SDS011;4164;49.844;8.830;2023-04-03T01:29:10;4.20;;;3.60;;
8247;SDS011;4164;49.844;8.830;2023-04-03T01:34:32;4.23;;;3.00;;
8247;SDS011;4164;49.844;8.830;2023-04-03T01:36:57;6.53;;;3.53;;
8247;SDS011;4164;49.844;8.830;2023-04-03T01:39:23;6.03;;;3.93;;
8247;SDS011;4164;49.844;8.830;2023-04-03T01:41:49;4.53;;;3.40;;
8247;SDS011;4164;49.844;8.830;2023-04-03T01:44:15;5.50;;;3.10;;
8247;SDS011;4164;49.844;8.830;2023-04-03T01:46:40;4.97;;;3.40;;
8247;SDS011;4164;49.844;8.830;2023-04-03T01:49:07;4.40;;;3.60;;
8247;SDS011;4164;49.844;8.830;2023-04-03T01:51:33;6.43;;;3.80;;
8247;SDS011;4164;49.844;8.830;2023-04-03T01:53:58;5.77;;;3.87;;
8247;SDS011;4164;49.844;8.830;2023-04-03T01:56:24;7.10;;;4.20;;
8247;SDS011;4164;49.844;8.830;2023-04-03T01:58:50;5.33;;;3.70;;
8247;SDS011;4164;49.844;8.830;2023-04-03T02:01:15;3.63;;;3.13;;
8247;SDS011;4164;49.844;8.830;2023-04-03T02:03:41;6.43;;;3.20;;
8247;SDS011;4164;49.844;8.830;2023-04-03T02:06:07;4.90;;;3.00;;
8247;SDS011;4164;49.844;8.830;2023-04-03T02:08:32;5.73;;;4.00;;
8247;SDS011;4164;49.844;8.830;2023-04-03T02:10:58;4.17;;;3.30;;
8247;SDS011;4164;49.844;8.830;2023-04-03T02:13:24;4.63;;;3.23;;
8247;SDS011;4164;49.844;8.830;2023-04-03T02:15:49;5.27;;;3.93;;
8247;SDS011;4164;49.844;8.830;2023-04-03T02:18:15;4.00;;;3.33;;
8247;SDS011;4164;49.844;8.830;2023-04-03T02:20:41;4.50;;;3.67;;
8247;SDS011;4164;49.844;8.830;2023-04-03T02:23:07;4.00;;;3.60;;
8247;SDS011;4164;49.844;8.830;2023-04-03T02:25:33;4.93;;;3.90;;
8247;SDS011;4164;49.844;8.830;2023-04-03T02:27:58;4.43;;;3.30;;
8247;SDS011;4164;49.844;8.830;2023-04-03T02:30:24;7.87;;;3.80;;
8247;SDS011;4164;49.844;8.830;2023-04-03T02:32:50;3.90;;;3.50;;
8247;SDS011;4164;49.844;8.830;2023-04-03T02:35:15;3.93;;;3.53;;
8247;SDS011;4164;49.844;8.830;2023-04-03T02:37:41;4.17;;;3.47;;
8247;SDS011;4164;49.844;8.830;2023-04-03T02:40:07;6.40;;;4.50;;
8247;SDS011;4164;49.844;8.830;2023-04-03T02:42:33;6.87;;;3.83;;
8247;SDS011;4164;49.844;8.830;2023-04-03T02:44:59;5.53;;;3.70;;
8247;SDS011;4164;49.844;8.830;2023-04-03T02:47:27;7.90;;;3.73;;
8247;SDS011;4164;49.844;8.830;2023-04-03T02:49:53;5.03;;;3.70;;
8247;SDS011;4164;49.844;8.830;2023-04-03T02:52:19;4.63;;;3.73;;
8247;SDS011;4164;49.844;8.830;2023-04-03T02:54:45;5.60;;;3.80;;
8247;SDS011;4164;49.844;8.830;2023-04-03T02:57:11;6.33;;;4.07;;
8247;SDS011;4164;49.844;8.830;2023-04-03T02:59:36;6.37;;;3.33;;
8247;SDS011;4164;49.844;8.830;2023-04-03T03:02:05;8.23;;;3.97;;
8247;SDS011;4164;49.844;8.830;2023-04-03T03:04:32;5.00;;;3.73;;
8247;SDS011;4164;49.844;8.830;2023-04-03T03:06:57;5.30;;;4.27;;
8247;SDS011;4164;49.844;8.830;2023-04-03T03:09:23;6.13;;;3.77;;
8247;SDS011;4164;49.844;8.830;2023-04-03T03:11:48;7.37;;;3.90;;
8247;SDS011;4164;49.844;8.830;2023-04-03T03:14:14;4.87;;;3.90;;
8247;SDS011;4164;49.844;8.830;2023-04-03T03:16:40;6.33;;;3.87;;
8247;SDS011;4164;49.844;8.830;2023-04-03T03:19:05;6.67;;;4.30;;
8247;SDS011;4164;49.844;8.830;2023-04-03T03:21:31;4.77;;;4.10;;
8247;SDS011;4164;49.844;8.830;2023-04-03T03:23:57;5.13;;;4.03;;
8247;SDS011;4164;49.844;8.830;2023-04-03T03:26:22;6.13;;;3.97;;
8247;SDS011;4164;49.844;8.830;2023-04-03T03:28:48;8.40;;;4.20;;
8247;SDS011;4164;49.844;8.830;2023-04-03T03:31:14;5.43;;;3.97;;
8247;SDS011;4164;49.844;8.830;2023-04-03T03:33:40;5.43;;;4.13;;
8247;SDS011;4164;49.844;8.830;2023-04-03T03:36:05;6.30;;;4.63;;
8247;SDS011;4164;49.844;8.830;2023-04-03T03:38:31;6.27;;;4.80;;
8247;SDS011;4164;49.844;8.830;2023-04-03T03:40:57;5.40;;;4.57;;
8247;SDS011;4164;49.844;8.830;2023-04-03T03:43:22;5.13;;;4.10;;
8247;SDS011;4164;49.844;8.830;2023-04-03T03:45:51;5.10;;;3.93;;
8247;SDS011;4164;49.844;8.830;2023-04-03T03:48:18;7.13;;;4.60;;
8247;SDS011;4164;49.844;8.830;2023-04-03T03:50:44;8.60;;;5.00;;
8247;SDS011;4164;49.844;8.830;2023-04-03T03:53:10;5.77;;;4.60;;
8247;SDS011;4164;49.844;8.830;2023-04-03T03:55:35;5.40;;;4.50;;
8247;SDS011;4164;49.844;8.830;2023-04-03T03:58:01;7.57;;;5.13;;
8247;SDS011;4164;49.844;8.830;2023-04-03T04:00:26;4.90;;;4.40;;
8247;SDS011;4164;49.844;8.830;2023-04-03T04:02:52;6.90;;;4.90;;
8247;SDS011;4164;49.844;8.830;2023-04-03T04:05:18;5.80;;;4.80;;
8247;SDS011;4164;49.844;8.830;2023-04-03T04:07:44;10.97;;;6.63;;
8247;SDS011;4164;49.844;8.830;2023-04-03T04:10:10;12.90;;;7.10;;
8247;SDS011;4164;49.844;8.830;2023-04-03T04:12:35;11.10;;;7.73;;
8247;SDS011;4164;49.844;8.830;2023-04-03T04:15:02;11.67;;;8.10;;
8247;SDS011;4164;49.844;8.830;2023-04-03T04:17:27;17.87;;;9.70;;
8247;SDS011;4164;49.844;8.830;2023-04-03T04:19:53;15.43;;;8.37;;
8247;SDS011;4164;49.844;8.830;2023-04-03T04:22:19;17.80;;;8.00;;
8247;SDS011;4164;49.844;8.830;2023-04-03T04:24:44;16.33;;;9.27;;
8247;SDS011;4164;49.844;8.830;2023-04-03T04:27:10;40.70;;;17.30;;
8247;SDS011;4164;49.844;8.830;2023-04-03T04:29:35;41.87;;;19.17;;
8247;SDS011;4164;49.844;8.830;2023-04-03T04:32:02;24.60;;;14.00;;
8247;SDS011;4164;49.844;8.830;2023-04-03T04:34:28;14.60;;;8.77;;
8247;SDS011;4164;49.844;8.830;2023-04-03T04:36:54;8.87;;;5.83;;
8247;SDS011;4164;49.844;8.830;2023-04-03T04:39:20;7.40;;;5.53;;
8247;SDS011;4164;49.844;8.830;2023-04-03T04:41:46;8.03;;;5.70;;
8247;SDS011;4164;49.844;8.830;2023-04-03T04:44:11;7.90;;;5.93;;
8247;SDS011;4164;49.844;8.830;2023-04-03T04:46:37;8.77;;;5.40;;
8247;SDS011;4164;49.844;8.830;2023-04-03T04:49:05;6.37;;;4.77;;
8247;SDS011;4164;49.844;8.830;2023-04-03T04:51:31;11.93;;;6.53;;
8247;SDS011;4164;49.844;8.830;2023-04-03T04:53:56;7.23;;;5.70;;
8247;SDS011;4164;49.844;8.830;2023-04-03T04:56:22;10.10;;;5.70;;
8247;SDS011;4164;49.844;8.830;2023-04-03T04:58:47;8.17;;;5.33;;
8247;SDS011;4164;49.844;8.830;2023-04-03T05:01:13;12.03;;;5.77;;
8247;SDS011;4164;49.844;8.830;2023-04-03T05:03:39;11.80;;;7.53;;
8247;SDS011;4164;49.844;8.830;2023-04-03T05:06:04;11.53;;;8.10;;
8247;SDS011;4164;49.844;8.830;2023-04-03T05:08:30;10.00;;;7.40;;
8247;SDS011;4164;49.844;8.830;2023-04-03T05:10:56;13.57;;;8.17;;
8247;SDS011;4164;49.844;8.830;2023-04-03T05:13:22;8.50;;;6.23;;
8247;SDS011;4164;49.844;8.830;2023-04-03T05:15:48;8.47;;;6.20;;
8247;SDS011;4164;49.844;8.830;2023-04-03T05:18:13;9.20;;;6.43;;
8247;SDS011;4164;49.844;8.830;2023-04-03T05:20:39;18.57;;;5.97;;
8247;SDS011;4164;49.844;8.830;2023-04-03T05:23:05;15.00;;;6.47;;
8247;SDS011;4164;49.844;8.830;2023-04-03T05:25:30;8.17;;;6.30;;
8247;SDS011;4164;49.844;8.830;2023-04-03T05:27:56;8.73;;;6.07;;
8247;SDS011;4164;49.844;8.830;2023-04-03T05:30:22;9.20;;;6.23;;
8247;SDS011;4164;49.844;8.830;2023-04-03T05:32:47;11.80;;;5.87;;
8247;SDS011;4164;49.844;8.830;2023-04-03T05:35:13;6.70;;;5.33;;
8247;SDS011;4164;49.844;8.830;2023-04-03T05:37:39;6.50;;;5.00;;
8247;SDS011;4164;49.844;8.830;2023-04-03T05:40:05;7.30;;;4.23;;
8247;SDS011;4164;49.844;8.830;2023-04-03T05:42:31;7.27;;;4.83;;
8247;SDS011;4164;49.844;8.830;2023-04-03T05:44:57;6.53;;;4.27;;
8247;SDS011;4164;49.844;8.830;2023-04-03T05:47:22;8.43;;;3.77;;
8247;SDS011;4164;49.844;8.830;2023-04-03T05:49:48;8.03;;;3.90;;
8247;SDS011;4164;49.844;8.830;2023-04-03T05:52:18;7.87;;;3.90;;
8247;SDS011;4164;49.844;8.830;2023-04-03T05:54:46;6.77;;;3.30;;
8247;SDS011;4164;49.844;8.830;2023-04-03T05:57:13;7.07;;;4.17;;
8247;SDS011;4164;49.844;8.830;2023-04-03T05:59:40;5.27;;;3.27;;
8247;SDS011;4164;49.844;8.830;2023-04-03T06:02:08;6.10;;;2.90;;
8247;SDS011;4164;49.844;8.830;2023-04-03T06:04:36;9.37;;;3.63;;
8247;SDS011;4164;49.844;8.830;2023-04-03T06:07:02;4.47;;;2.63;;
8247;SDS011;4164;49.844;8.830;2023-04-03T06:09:28;5.80;;;2.93;;
8247;SDS011;4164;49.844;8.830;2023-04-03T06:11:54;7.83;;;3.27;;
8247;SDS011;4164;49.844;8.830;2023-04-03T06:14:19;9.10;;;3.47;;
8247;SDS011;4164;49.844;8.830;2023-04-03T06:16:45;5.67;;;2.40;;
8247;SDS011;4164;49.844;8.830;2023-04-03T06:19:11;8.77;;;2.97;;
8247;SDS011;4164;49.844;8.830;2023-04-03T06:21:37;3.90;;;2.10;;
8247;SDS011;4164;49.844;8.830;2023-04-03T06:24:03;4.17;;;2.37;;
8247;SDS011;4164;49.844;8.830;2023-04-03T06:26:30;5.77;;;2.13;;
8247;SDS011;4164;49.844;8.830;2023-04-03T06:28:55;4.87;;;2.30;;
8247;SDS011;4164;49.844;8.830;2023-04-03T06:31:21;4.40;;;2.10;;
8247;SDS011;4164;49.844;8.830;2023-04-03T06:33:47;4.53;;;2.33;;
8247;SDS011;4164;49.844;8.830;2023-04-03T06:36:12;4.80;;;2.53;;
8247;SDS011;4164;49.844;8.830;2023-04-03T06:38:38;5.23;;;2.37;;
8247;SDS011;4164;49.844;8.830;2023-04-03T06:41:04;5.60;;;3.70;;
8247;SDS011;4164;49.844;8.830;2023-04-03T06:43:29;6.23;;;2.53;;
8247;SDS011;4164;49.844;8.830;2023-04-03T06:45:56;5.07;;;2.27;;
8247;SDS011;4164;49.844;8.830;2023-04-03T06:48:22;4.23;;;2.43;;
8247;SDS011;4164;49.844;8.830;2023-04-03T06:50:48;5.40;;;2.20;;
8247;SDS011;4164;49.844;8.830;2023-04-03T06:53:13;8.10;;;2.70;;
8247;SDS011;4164;49.844;8.830;2023-04-03T06:55:39;6.30;;;2.37;;
8247;SDS011;4164;49.844;8.830;2023-04-03T06:58:06;3.50;;;2.00;;
8247;SDS011;4164;49.844;8.830;2023-04-03T07:00:31;3.27;;;2.13;;
8247;SDS011;4164;49.844;8.830;2023-04-03T07:02:57;3.70;;;2.20;;
8247;SDS011;4164;49.844;8.830;2023-04-03T07:05:23;4.17;;;2.10;;
8247;SDS011;4164;49.844;8.830;2023-04-03T07:07:49;3.50;;;2.10;;
8247;SDS011;4164;49.844;8.830;2023-04-03T07:10:15;4.30;;;2.00;;
8247;SDS011;4164;49.844;8.830;2023-04-03T07:12:41;4.50;;;2.00;;
8247;SDS011;4164;49.844;8.830;2023-04-03T07:15:07;4.70;;;2.07;;
8247;SDS011;4164;49.844;8.830;2023-04-03T07:17:33;5.73;;;2.00;;
8247;SDS011;4164;49.844;8.830;2023-04-03T07:19:59;4.50;;;2.40;;
8247;SDS011;4164;49.844;8.830;2023-04-03T07:22:25;2.70;;;1.80;;
8247;SDS011;4164;49.844;8.830;2023-04-03T07:24:50;5.87;;;2.10;;
8247;SDS011;4164;49.844;8.830;2023-04-03T07:27:16;3.37;;;2.10;;
8247;SDS011;4164;49.844;8.830;2023-04-03T07:29:42;7.60;;;2.00;;
8247;SDS011;4164;49.844;8.830;2023-04-03T07:32:09;5.30;;;1.90;;
8247;SDS011;4164;49.844;8.830;2023-04-03T07:34:34;6.57;;;1.83;;
8247;SDS011;4164;49.844;8.830;2023-04-03T07:37:00;3.37;;;1.93;;
8247;SDS011;4164;49.844;8.830;2023-04-03T07:39:27;4.83;;;1.77;;
8247;SDS011;4164;49.844;8.830;2023-04-03T07:41:53;4.23;;;2.30;;
8247;SDS011;4164;49.844;8.830;2023-04-03T07:44:20;4.07;;;2.00;;
8247;SDS011;4164;49.844;8.830;2023-04-03T07:46:46;4.07;;;2.10;;
8247;SDS011;4164;49.844;8.830;2023-04-03T07:49:12;4.07;;;2.03;;
8247;SDS011;4164;49.844;8.830;2023-04-03T07:51:37;5.77;;;1.73;;
8247;SDS011;4164;49.844;8.830;2023-04-03T07:54:03;3.13;;;1.80;;
8247;SDS011;4164;49.844;8.830;2023-04-03T07:56:29;5.67;;;2.23;;
8247;SDS011;4164;49.844;8.830;2023-04-03T07:58:54;4.00;;;1.63;;
8247;SDS011;4164;49.844;8.830;2023-04-03T08:01:20;5.67;;;1.70;;
8247;SDS011;4164;49.844;8.830;2023-04-03T08:03:45;2.67;;;1.70;;
8247;SDS011;4164;49.844;8.830;2023-04-03T08:06:11;3.03;;;2.07;;
8247;SDS011;4164;49.844;8.830;2023-04-03T08:08:38;5.37;;;1.73;;
8247;SDS011;4164;49.844;8.830;2023-04-03T08:11:04;4.00;;;1.70;;
8247;SDS011;4164;49.844;8.830;2023-04-03T08:13:31;4.50;;;2.00;;
8247;SDS011;4164;49.844;8.830;2023-04-03T08:15:56;2.00;;;1.33;;
8247;SDS011;4164;49.844;8.830;2023-04-03T08:18:24;3.50;;;1.50;;
8247;SDS011;4164;49.844;8.830;2023-04-03T08:20:51;2.50;;;1.50;;
8247;SDS011;4164;49.844;8.830;2023-04-03T08:23:17;6.40;;;1.80;;
8247;SDS011;4164;49.844;8.830;2023-04-03T08:25:43;2.20;;;1.47;;
8247;SDS011;4164;49.844;8.830;2023-04-03T08:28:10;3.63;;;1.50;;
8247;SDS011;4164;49.844;8.830;2023-04-03T08:30:38;3.63;;;1.67;;
8247;SDS011;4164;49.844;8.830;2023-04-03T08:33:07;7.37;;;1.53;;
8247;SDS011;4164;49.844;8.830;2023-04-03T08:35:33;2.07;;;1.50;;
8247;SDS011;4164;49.844;8.830;2023-04-03T08:38:03;6.00;;;1.80;;
8247;SDS011;4164;49.844;8.830;2023-04-03T08:40:29;3.53;;;1.43;;
8247;SDS011;4164;49.844;8.830;2023-04-03T08:45:46;2.23;;;1.40;;
8247;SDS011;4164;49.844;8.830;2023-04-03T08:48:35;3.03;;;1.73;;
8247;SDS011;4164;49.844;8.830;2023-04-03T08:51:04;2.80;;;1.47;;
8247;SDS011;4164;49.844;8.830;2023-04-03T08:53:40;7.13;;;1.90;;
8247;SDS011;4164;49.844;8.830;2023-04-03T08:56:11;2.97;;;1.63;;
8247;SDS011;4164;49.844;8.830;2023-04-03T08:58:46;3.00;;;1.60;;
8247;SDS011;4164;49.844;8.830;2023-04-03T09:01:29;2.27;;;1.40;;
8247;SDS011;4164;49.844;8.830;2023-04-03T09:04:10;3.30;;;1.70;;
8247;SDS011;4164;49.844;8.830;2023-04-03T09:06:39;4.87;;;1.40;;
8247;SDS011;4164;49.844;8.830;2023-04-03T09:12:04;3.93;;;1.53;;
8247;SDS011;4164;49.844;8.830;2023-04-03T09:22:52;3.13;;;1.20;;
8247;SDS011;4164;49.844;8.830;2023-04-03T09:25:31;3.50;;;1.50;;
8247;SDS011;4164;49.844;8.830;2023-04-03T09:28:00;3.47;;;1.47;;
8247;SDS011;4164;49.844;8.830;2023-04-03T09:30:27;2.13;;;1.20;;
8247;SDS011;4164;49.844;8.830;2023-04-03T09:32:54;3.20;;;1.30;;
8247;SDS011;4164;49.844;8.830;2023-04-03T09:35:23;2.47;;;1.60;;
8247;SDS011;4164;49.844;8.830;2023-04-03T09:38:19;3.03;;;1.60;;
8247;SDS011;4164;49.844;8.830;2023-04-03T09:40:48;2.23;;;1.30;;
8247;SDS011;4164;49.844;8.830;2023-04-03T09:43:29;3.40;;;1.80;;
8247;SDS011;4164;49.844;8.830;2023-04-03T09:46:15;1.53;;;1.20;;
8247;SDS011;4164;49.844;8.830;2023-04-03T09:48:55;5.73;;;1.67;;
8247;SDS011;4164;49.844;8.830;2023-04-03T09:51:31;2.83;;;1.50;;
8247;SDS011;4164;49.844;8.830;2023-04-03T09:53:57;4.97;;;2.20;;
8247;SDS011;4164;49.844;8.830;2023-04-03T09:56:25;4.33;;;1.80;;
8247;SDS011;4164;49.844;8.830;2023-04-03T10:01:33;4.03;;;1.80;;
8247;SDS011;4164;49.844;8.830;2023-04-03T10:04:08;2.43;;;1.60;;
8247;SDS011;4164;49.844;8.830;2023-04-03T10:06:51;2.87;;;1.83;;
8247;SDS011;4164;49.844;8.830;2023-04-03T10:09:29;5.80;;;1.97;;
8247;SDS011;4164;49.844;8.830;2023-04-03T10:14:29;3.80;;;1.67;;
8247;SDS011;4164;49.844;8.830;2023-04-03T10:17:02;3.23;;;1.63;;
8247;SDS011;4164;49.844;8.830;2023-04-03T10:19:41;4.60;;;2.00;;
8247;SDS011;4164;49.844;8.830;2023-04-03T10:25:28;3.63;;;1.93;;
8247;SDS011;4164;49.844;8.830;2023-04-03T10:36:45;3.37;;;1.50;;
8247;SDS011;4164;49.844;8.830;2023-04-03T10:39:44;1.70;;;1.30;;
8247;SDS011;4164;49.844;8.830;2023-04-03T10:42:34;3.33;;;1.50;;
8247;SDS011;4164;49.844;8.830;2023-04-03T10:48:02;1.80;;;1.33;;
8247;SDS011;4164;49.844;8.830;2023-04-03T10:50:53;3.00;;;1.57;;
8247;SDS011;4164;49.844;8.830;2023-04-03T10:53:22;3.80;;;2.37;;
8247;SDS011;4164;49.844;8.830;2023-04-03T10:58:54;1.23;;;1.10;;
8247;SDS011;4164;49.844;8.830;2023-04-03T11:01:26;4.33;;;1.70;;
8247;SDS011;4164;49.844;8.830;2023-04-03T11:03:58;3.40;;;1.63;;
8247;SDS011;4164;49.844;8.830;2023-04-03T11:06:28;3.40;;;1.40;;
8247;SDS011;4164;49.844;8.830;2023-04-03T11:09:09;4.00;;;1.70;;
8247;SDS011;4164;49.844;8.830;2023-04-03T11:11:37;4.60;;;1.50;;
8247;SDS011;4164;49.844;8.830;2023-04-03T11:14:09;1.80;;;1.37;;
8247;SDS011;4164;49.844;8.830;2023-04-03T11:16:48;1.40;;;1.17;;
8247;SDS011;4164;49.844;8.830;2023-04-03T11:19:29;1.77;;;1.47;;
8247;SDS011;4164;49.844;8.830;2023-04-03T11:22:32;3.27;;;1.73;;
8247;SDS011;4164;49.844;8.830;2023-04-03T11:27:38;2.77;;;1.63;;
8247;SDS011;4164;49.844;8.830;2023-04-03T11:30:15;3.73;;;1.43;;
8247;SDS011;4164;49.844;8.830;2023-04-03T11:32:51;3.33;;;1.60;;
8247;SDS011;4164;49.844;8.830;2023-04-03T11:35:37;5.77;;;2.00;;
8247;SDS011;4164;49.844;8.830;2023-04-03T11:38:18;6.07;;;1.50;;
8247;SDS011;4164;49.844;8.830;2023-04-03T11:40:51;2.60;;;1.77;;
8247;SDS011;4164;49.844;8.830;2023-04-03T11:43:23;2.30;;;1.80;;
8247;SDS011;4164;49.844;8.830;2023-04-03T11:46:03;3.53;;;1.80;;
8247;SDS011;4164;49.844;8.830;2023-04-03T11:51:00;2.20;;;1.73;;
8247;SDS011;4164;49.844;8.830;2023-04-03T11:53:36;2.17;;;1.80;;
8247;SDS011;4164;49.844;8.830;2023-04-03T11:59:34;3.23;;;1.77;;
8247;SDS011;4164;49.844;8.830;2023-04-03T12:01:50;2.60;;;1.67;;
8247;SDS011;4164;49.844;8.830;2023-04-03T12:04:18;5.17;;;2.10;;
8247;SDS011;4164;49.844;8.830;2023-04-03T12:06:52;2.10;;;1.67;;
8247;SDS011;4164;49.844;8.830;2023-04-03T12:11:51;6.43;;;1.80;;
8247;SDS011;4164;49.844;8.830;2023-04-03T12:14:17;3.73;;;1.57;;
8247;SDS011;4164;49.844;8.830;2023-04-03T12:16:44;3.07;;;1.60;;
8247;SDS011;4164;49.844;8.830;2023-04-03T12:24:26;2.97;;;1.43;;
8247;SDS011;4164;49.844;8.830;2023-04-03T12:43:31;2.93;;;1.70;;
8247;SDS011;4164;49.844;8.830;2023-04-03T12:46:04;3.30;;;1.77;;
8247;SDS011;4164;49.844;8.830;2023-04-03T12:51:18;1.60;;;1.50;;
8247;SDS011;4164;49.844;8.830;2023-04-03T12:53:48;3.10;;;1.90;;
8247;SDS011;4164;49.844;8.830;2023-04-03T12:58:47;3.53;;;2.07;;
8247;SDS011;4164;49.844;8.830;2023-04-03T13:01:14;2.40;;;1.90;;
8247;SDS011;4164;49.844;8.830;2023-04-03T13:03:44;4.03;;;1.60;;
8247;SDS011;4164;49.844;8.830;2023-04-03T13:06:26;3.47;;;1.80;;
8247;SDS011;4164;49.844;8.830;2023-04-03T13:08:59;5.03;;;2.20;;
8247;SDS011;4164;49.844;8.830;2023-04-03T13:11:38;3.13;;;1.83;;
8247;SDS011;4164;49.844;8.830;2023-04-03T13:14:16;2.87;;;1.70;;
8247;SDS011;4164;49.844;8.830;2023-04-03T13:16:57;3.13;;;1.73;;
8247;SDS011;4164;49.844;8.830;2023-04-03T13:19:35;2.17;;;1.87;;
8247;SDS011;4164;49.844;8.830;2023-04-03T13:22:02;2.57;;;2.00;;
8247;SDS011;4164;49.844;8.830;2023-04-03T13:24:32;4.57;;;1.77;;
8247;SDS011;4164;49.844;8.830;2023-04-03T13:27:03;2.00;;;1.57;;
8247;SDS011;4164;49.844;8.830;2023-04-03T13:29:30;1.40;;;1.30;;
8247;SDS011;4164;49.844;8.830;2023-04-03T13:32:02;3.17;;;1.93;;
8247;SDS011;4164;49.844;8.830;2023-04-03T13:34:35;2.83;;;1.70;;
8247;SDS011;4164;49.844;8.830;2023-04-03T13:37:03;3.33;;;1.50;;
8247;SDS011;4164;49.844;8.830;2023-04-03T13:39:37;3.40;;;1.93;;
8247;SDS011;4164;49.844;8.830;2023-04-03T13:44:46;2.87;;;1.50;;
8247;SDS011;4164;49.844;8.830;2023-04-03T13:50:12;1.77;;;1.63;;
8247;SDS011;4164;49.844;8.830;2023-04-03T13:52:59;1.77;;;1.50;;
8247;SDS011;4164;49.844;8.830;2023-04-03T13:55:36;1.80;;;1.47;;
8247;SDS011;4164;49.844;8.830;2023-04-03T13:58:29;2.40;;;1.43;;
8247;SDS011;4164;49.844;8.830;2023-04-03T14:03:36;1.70;;;1.60;;
8247;SDS011;4164;49.844;8.830;2023-04-03T14:06:12;1.67;;;1.30;;
8247;SDS011;4164;49.844;8.830;2023-04-03T14:08:41;2.33;;;1.73;;
8247;SDS011;4164;49.844;8.830;2023-04-03T14:11:11;1.50;;;1.40;;
8247;SDS011;4164;49.844;8.830;2023-04-03T14:13:49;2.07;;;1.30;;
8247;SDS011;4164;49.844;8.830;2023-04-03T14:16:17;1.50;;;1.40;;
8247;SDS011;4164;49.844;8.830;2023-04-03T14:18:44;6.00;;;1.50;;
8247;SDS011;4164;49.844;8.830;2023-04-03T14:21:12;3.40;;;1.60;;
8247;SDS011;4164;49.844;8.830;2023-04-03T14:23:38;2.40;;;1.30;;
8247;SDS011;4164;49.844;8.830;2023-04-03T14:26:08;2.33;;;1.40;;
8247;SDS011;4164;49.844;8.830;2023-04-03T14:28:37;4.07;;;1.73;;
8247;SDS011;4164;49.844;8.830;2023-04-03T14:31:04;3.23;;;1.67;;
8247;SDS011;4164;49.844;8.830;2023-04-03T14:33:30;4.00;;;1.63;;
8247;SDS011;4164;49.844;8.830;2023-04-03T14:35:59;3.63;;;1.50;;
8247;SDS011;4164;49.844;8.830;2023-04-03T14:38:28;2.10;;;1.40;;
8247;SDS011;4164;49.844;8.830;2023-04-03T14:40:55;1.40;;;1.30;;
8247;SDS011;4164;49.844;8.830;2023-04-03T14:43:22;1.70;;;1.40;;
8247;SDS011;4164;49.844;8.830;2023-04-03T14:45:48;2.50;;;1.50;;
8247;SDS011;4164;49.844;8.830;2023-04-03T14:48:17;3.93;;;1.20;;
8247;SDS011;4164;49.844;8.830;2023-04-03T14:50:45;2.53;;;1.50;;
8247;SDS011;4164;49.844;8.830;2023-04-03T14:53:12;3.03;;;1.47;;
8247;SDS011;4164;49.844;8.830;2023-04-03T14:55:39;2.63;;;1.50;;
8247;SDS011;4164;49.844;8.830;2023-04-03T14:58:16;1.20;;;1.20;;
8247;SDS011;4164;49.844;8.830;2023-04-03T15:00:44;1.90;;;1.30;;
8247;SDS011;4164;49.844;8.830;2023-04-03T15:03:20;2.60;;;1.20;;
8247;SDS011;4164;49.844;8.830;2023-04-03T15:05:47;2.07;;;1.40;;
8247;SDS011;4164;49.844;8.830;2023-04-03T15:08:17;1.50;;;1.20;;
8247;SDS011;4164;49.844;8.830;2023-04-03T15:10:45;1.93;;;1.40;;
8247;SDS011;4164;49.844;8.830;2023-04-03T15:13:11;1.40;;;1.30;;
8247;SDS011;4164;49.844;8.830;2023-04-03T15:15:38;1.60;;;1.47;;
8247;SDS011;4164;49.844;8.830;2023-04-03T15:18:03;3.03;;;1.50;;
8247;SDS011;4164;49.844;8.830;2023-04-03T15:20:29;2.30;;;1.40;;
8247;SDS011;4164;49.844;8.830;2023-04-03T15:22:58;3.17;;;1.50;;
8247;SDS011;4164;49.844;8.830;2023-04-03T15:25:26;4.43;;;1.47;;
8247;SDS011;4164;49.844;8.830;2023-04-03T15:27:52;4.10;;;1.40;;
8247;SDS011;4164;49.844;8.830;2023-04-03T15:30:19;3.40;;;1.50;;
8247;SDS011;4164;49.844;8.830;2023-04-03T15:32:45;2.13;;;1.53;;
8247;SDS011;4164;49.844;8.830;2023-04-03T15:35:12;2.30;;;1.90;;
8247;SDS011;4164;49.844;8.830;2023-04-03T15:37:38;3.00;;;1.40;;
8247;SDS011;4164;49.844;8.830;2023-04-03T15:40:04;2.20;;;1.30;;
8247;SDS011;4164;49.844;8.830;2023-04-03T15:42:31;4.07;;;1.73;;
8247;SDS011;4164;49.844;8.830;2023-04-03T15:44:56;3.60;;;2.00;;
8247;SDS011;4164;49.844;8.830;2023-04-03T15:47:22;2.77;;;1.87;;
8247;SDS011;4164;49.844;8.830;2023-04-03T15:49:49;4.93;;;3.50;;
8247;SDS011;4164;49.844;8.830;2023-04-03T15:52:14;6.07;;;2.07;;
8247;SDS011;4164;49.844;8.830;2023-04-03T15:54:40;2.67;;;1.90;;
8247;SDS011;4164;49.844;8.830;2023-04-03T15:57:05;3.23;;;1.77;;
8247;SDS011;4164;49.844;8.830;2023-04-03T15:59:31;2.43;;;1.70;;
8247;SDS011;4164;49.844;8.830;2023-04-03T16:01:57;4.80;;;2.10;;
8247;SDS011;4164;49.844;8.830;2023-04-03T16:04:24;2.57;;;1.60;;
8247;SDS011;4164;49.844;8.830;2023-04-03T16:06:50;2.93;;;1.90;;
8247;SDS011;4164;49.844;8.830;2023-04-03T16:09:15;5.17;;;1.83;;
8247;SDS011;4164;49.844;8.830;2023-04-03T16:11:41;2.97;;;1.90;;
8247;SDS011;4164;49.844;8.830;2023-04-03T16:14:08;2.97;;;1.83;;
8247;SDS011;4164;49.844;8.830;2023-04-03T16:16:34;3.07;;;1.67;;
8247;SDS011;4164;49.844;8.830;2023-04-03T16:19:00;2.77;;;2.00;;
8247;SDS011;4164;49.844;8.830;2023-04-03T16:21:26;2.83;;;1.53;;
8247;SDS011;4164;49.844;8.830;2023-04-03T16:23:52;5.37;;;1.77;;
8247;SDS011;4164;49.844;8.830;2023-04-03T16:26:18;2.20;;;1.30;;
8247;SDS011;4164;49.844;8.830;2023-04-03T16:28:45;3.67;;;1.63;;
8247;SDS011;4164;49.844;8.830;2023-04-03T16:31:10;2.77;;;1.30;;
8247;SDS011;4164;49.844;8.830;2023-04-03T16:33:36;2.00;;;1.40;;
8247;SDS011;4164;49.844;8.830;2023-04-03T16:36:03;1.73;;;1.40;;
8247;SDS011;4164;49.844;8.830;2023-04-03T16:38:29;3.73;;;1.67;;
8247;SDS011;4164;49.844;8.830;2023-04-03T16:40:55;2.50;;;1.60;;
8247;SDS011;4164;49.844;8.830;2023-04-03T16:43:24;3.17;;;1.37;;
8247;SDS011;4164;49.844;8.830;2023-04-03T16:45:50;3.07;;;1.30;;
8247;SDS011;4164;49.844;8.830;2023-04-03T16:48:15;1.57;;;1.40;;
8247;SDS011;4164;49.844;8.830;2023-04-03T16:50:41;2.07;;;1.67;;
8247;SDS011;4164;49.844;8.830;2023-04-03T16:53:07;1.53;;;1.33;;